createdAt,value
2023-03-03T00:01:37.384Z,98818.00
2023-03-03T00:04:22.531Z,98822.44
2023-03-03T00:07:07.954Z,98803.66
2023-03-03T00:09:53.563Z,98762.72
2023-03-03T00:12:49.447Z,98827.63
2023-03-03T00:15:36.186Z,98820.63
2023-03-03T00:18:33.596Z,98824.09
2023-03-03T00:21:28.382Z,98822.34
2023-03-03T00:24:13.960Z,98816.63
2023-03-03T00:27:09.243Z,98812.44
2023-03-03T00:29:57.186Z,98810.53
2023-03-03T00:32:46.285Z,98815.56
2023-03-03T00:35:33.398Z,98809.38
2023-03-03T00:38:18.821Z,98794.97
2023-03-03T00:41:16.645Z,98818.47
2023-03-03T00:44:28.475Z,98796.09
2023-03-03T00:47:31.413Z,98814.06
2023-03-03T00:50:29.780Z,98825.28
2023-03-03T00:53:17.376Z,98820.44
2023-03-03T00:56:03.063Z,98832.59
2023-03-03T00:58:48.429Z,98837.34
2023-03-03T01:01:36.633Z,98833.84
2023-03-03T01:04:21.759Z,98838.31
2023-03-03T01:07:07.057Z,98836.28
2023-03-03T01:09:52.695Z,98803.75
2023-03-03T01:12:39.845Z,98800.13
2023-03-03T01:15:25.363Z,98744.41
2023-03-03T01:18:12.096Z,98796.06
2023-03-03T01:20:57.834Z,98770.38
2023-03-03T01:23:43.027Z,98791.94
2023-03-03T01:26:28.659Z,98773.94
2023-03-03T01:29:13.790Z,98818.59
2023-03-03T01:31:59.512Z,98820.31
2023-03-03T01:34:44.986Z,98786.75
2023-03-03T01:37:30.386Z,98825.84
2023-03-03T01:40:25.094Z,98819.06
2023-03-03T01:43:15.126Z,98822.19
2023-03-03T01:46:00.735Z,98830.81
2023-03-03T01:48:46.905Z,98816.41
2023-03-03T01:52:02.705Z,98827.50
2023-03-03T01:54:53.717Z,98833.63
2023-03-03T01:57:44.878Z,98838.09
2023-03-03T02:00:31.690Z,98829.06
2023-03-03T02:03:19.931Z,98816.81
2023-03-03T02:06:10.004Z,98840.03
2023-03-03T02:09:02.230Z,98842.75
2023-03-03T02:11:51.125Z,98834.97
2023-03-03T02:14:37.220Z,98831.00
2023-03-03T02:17:22.889Z,98823.88
2023-03-03T02:20:45.968Z,98826.16
2023-03-03T02:23:45.431Z,98828.75
2023-03-03T02:26:34.334Z,98839.09
2023-03-03T02:29:23.884Z,98825.50
2023-03-03T02:32:09.177Z,98820.00
2023-03-03T02:34:54.498Z,98821.47
2023-03-03T02:37:40.099Z,98797.03
2023-03-03T02:40:28.994Z,98826.88
2023-03-03T02:43:17.513Z,98748.47
2023-03-03T02:46:03.423Z,98816.94
2023-03-03T02:48:49.354Z,98759.84
2023-03-03T02:51:35.271Z,98800.56
2023-03-03T02:54:22.837Z,98816.09
2023-03-03T02:57:08.457Z,98817.97
2023-03-03T02:59:53.672Z,98812.19
2023-03-03T03:02:39.211Z,98806.06
2023-03-03T03:05:25.178Z,98780.13
2023-03-03T03:08:10.458Z,98823.88
2023-03-03T03:10:56.189Z,98826.97
2023-03-03T03:13:43.770Z,98808.22
2023-03-03T03:16:29.353Z,98818.38
2023-03-03T03:19:14.749Z,98826.34
2023-03-03T03:22:01.778Z,98823.00
2023-03-03T03:24:48.337Z,98809.88
2023-03-03T03:27:34.423Z,98759.50
2023-03-03T03:30:19.894Z,98792.28
2023-03-03T03:33:06.524Z,98827.31
2023-03-03T03:35:52.757Z,98784.38
2023-03-03T03:38:38.617Z,98839.22
2023-03-03T03:41:25.659Z,98834.94
2023-03-03T03:44:11.251Z,98837.44
2023-03-03T03:46:56.757Z,98810.41
2023-03-03T03:49:43.229Z,98843.16
2023-03-03T03:52:28.658Z,98838.78
2023-03-03T03:55:14.200Z,98822.13
2023-03-03T03:58:00.554Z,98837.56
2023-03-03T04:00:46.484Z,98833.22
2023-03-03T04:03:32.764Z,98785.75
2023-03-03T04:06:18.709Z,98828.53
2023-03-03T04:09:03.979Z,98828.97
2023-03-03T04:11:49.818Z,98828.31
2023-03-03T04:14:36.290Z,98836.22
2023-03-03T04:17:23.402Z,98833.22
2023-03-03T04:20:12.899Z,98827.09
2023-03-03T04:22:58.111Z,98838.50
2023-03-03T04:25:47.382Z,98845.09
2023-03-03T04:28:33.659Z,98847.50
2023-03-03T04:31:19.414Z,98850.72
2023-03-03T04:34:05.586Z,98831.00
2023-03-03T04:36:51.742Z,98847.41
2023-03-03T04:39:37.158Z,98815.78
2023-03-03T04:42:22.369Z,98848.00
2023-03-03T04:45:08.428Z,98847.19
2023-03-03T04:47:54.353Z,98852.56
2023-03-03T04:50:42.516Z,98862.00
2023-03-03T04:53:28.119Z,98862.94
2023-03-03T04:56:13.672Z,98858.50
2023-03-03T04:58:58.898Z,98857.56
2023-03-03T05:01:44.390Z,98858.81
2023-03-03T05:04:29.616Z,98833.72
2023-03-03T05:07:14.779Z,98862.00
2023-03-03T05:10:00.061Z,98855.91
2023-03-03T05:12:45.199Z,98828.00
2023-03-03T05:15:33.820Z,98865.97
2023-03-03T05:18:19.875Z,98869.75
2023-03-03T05:21:05.918Z,98869.25
2023-03-03T05:23:51.610Z,98866.88
2023-03-03T05:26:37.396Z,98874.66
2023-03-03T05:29:23.105Z,98874.75
2023-03-03T05:32:08.573Z,98866.25
2023-03-03T05:34:53.935Z,98875.97
2023-03-03T05:37:39.150Z,98867.59
2023-03-03T05:40:27.934Z,98859.22
2023-03-03T05:43:13.308Z,98866.06
2023-03-03T05:45:58.789Z,98861.38
2023-03-03T05:48:44.542Z,98825.44
2023-03-03T05:51:30.482Z,98892.97
2023-03-03T05:54:15.921Z,98888.28
2023-03-03T05:57:01.193Z,98892.75
2023-03-03T05:59:46.633Z,98898.97
2023-03-03T06:02:32.200Z,98900.03
2023-03-03T06:05:17.961Z,98915.63
2023-03-03T06:08:03.958Z,98903.72
2023-03-03T06:10:49.529Z,98842.34
2023-03-03T06:13:35.132Z,98910.06
2023-03-03T06:16:20.706Z,98915.47
2023-03-03T06:19:06.333Z,98923.53
2023-03-03T06:21:51.727Z,98912.41
2023-03-03T06:24:37.058Z,98917.22
2023-03-03T06:27:22.594Z,98911.84
2023-03-03T06:30:08.532Z,98922.38
2023-03-03T06:32:54.719Z,98932.31
2023-03-03T06:35:39.980Z,98923.94
2023-03-03T06:38:26.905Z,98881.19
2023-03-03T06:41:12.126Z,98921.94
2023-03-03T06:43:57.915Z,98932.00
2023-03-03T06:46:43.102Z,98931.94
2023-03-03T06:49:29.043Z,98926.66
2023-03-03T06:52:26.103Z,98927.72
2023-03-03T06:55:15.365Z,98938.22
2023-03-03T06:58:01.079Z,98937.16
2023-03-03T07:00:55.460Z,98942.66
2023-03-03T07:03:40.932Z,98946.91
2023-03-03T07:06:26.910Z,98940.69
2023-03-03T07:09:37.726Z,98935.38
2023-03-03T07:12:26.611Z,98852.72
2023-03-03T07:15:24.477Z,98937.94
2023-03-03T07:18:59.143Z,98926.88
2023-03-03T07:21:44.294Z,98926.25
2023-03-03T07:24:31.380Z,98932.00
2023-03-03T07:27:23.746Z,98942.00
2023-03-03T07:30:12.431Z,98940.31
2023-03-03T07:32:59.271Z,98907.69
2023-03-03T07:35:44.920Z,98883.03
2023-03-03T07:38:37.211Z,98951.63
2023-03-03T07:41:22.630Z,98958.50
2023-03-03T07:44:21.452Z,98968.47
2023-03-03T07:47:20.159Z,98972.00
2023-03-03T07:50:24.045Z,98978.53
2023-03-03T07:53:30.755Z,98975.50
2023-03-03T07:56:31.050Z,98980.22
2023-03-03T07:59:25.709Z,98988.25
2023-03-03T08:02:42.156Z,98980.47
2023-03-03T08:05:30.601Z,98977.19
2023-03-03T08:08:34.800Z,98979.34
2023-03-03T08:11:20.272Z,98989.50
2023-03-03T08:14:11.651Z,98989.56
2023-03-03T08:17:00.419Z,98981.25
2023-03-03T08:19:46.666Z,98966.97
2023-03-03T08:22:34.790Z,98987.72
2023-03-03T08:25:19.978Z,98995.97
2023-03-03T08:28:05.273Z,98972.44
2023-03-03T08:30:50.705Z,99011.13
2023-03-03T08:33:36.495Z,99016.19
2023-03-03T08:36:22.117Z,99028.53
2023-03-03T08:39:07.518Z,99028.09
2023-03-03T08:41:52.680Z,99028.09
2023-03-03T08:44:38.242Z,99027.91
2023-03-03T08:47:23.790Z,98970.88
2023-03-03T08:50:09.622Z,99026.91
2023-03-03T08:52:55.771Z,99020.28
2023-03-03T08:55:42.107Z,98960.88
2023-03-03T08:58:35.220Z,99020.22
2023-03-03T09:01:21.562Z,99022.06
2023-03-03T09:04:06.780Z,99028.34
2023-03-03T09:06:52.501Z,99028.53
2023-03-03T09:09:37.912Z,99036.53
2023-03-03T09:12:44.666Z,99030.03
2023-03-03T09:15:32.275Z,99034.53
2023-03-03T09:18:19.575Z,99041.25
2023-03-03T09:21:37.302Z,99037.28
2023-03-03T09:24:28.935Z,99044.84
2023-03-03T09:27:22.761Z,99038.25
2023-03-03T09:30:36.905Z,99040.63
2023-03-03T09:33:42.855Z,99046.63
2023-03-03T09:36:35.138Z,99046.00
2023-03-03T09:39:25.637Z,99048.31
2023-03-03T09:42:26.402Z,99046.63
2023-03-03T09:45:36.287Z,99048.09
2023-03-03T09:48:48.177Z,99042.47
2023-03-03T09:51:41.359Z,99052.16
2023-03-03T09:54:45.622Z,99044.19
2023-03-03T09:58:15.706Z,99049.72
2023-03-03T10:01:51.383Z,99047.38
2023-03-03T10:04:55.404Z,99050.78
2023-03-03T10:07:49.609Z,99001.59
2023-03-03T10:10:34.766Z,99049.31
2023-03-03T10:14:02.046Z,99043.63
2023-03-03T10:16:59.162Z,99046.81
2023-03-03T10:20:06.209Z,99048.88
2023-03-03T10:23:01.549Z,99054.63
2023-03-03T10:26:10.471Z,99055.13
2023-03-03T10:29:08.661Z,99050.22
2023-03-03T10:32:18.612Z,99050.00
2023-03-03T10:35:07.115Z,99046.66
2023-03-03T10:38:20.039Z,99051.97
2023-03-03T10:41:36.303Z,99061.59
2023-03-03T10:44:49.402Z,99039.22
2023-03-03T10:48:01.666Z,99056.88
2023-03-03T10:51:05.238Z,99062.59
2023-03-03T10:54:28.066Z,99054.13
2023-03-03T10:57:37.614Z,99047.31
2023-03-03T11:00:48.622Z,99050.63
2023-03-03T11:03:43.124Z,99057.97
2023-03-03T11:06:42.235Z,99062.03
2023-03-03T11:09:33.607Z,99061.00
2023-03-03T11:12:31.111Z,99053.63
2023-03-03T11:15:32.186Z,99048.22
2023-03-03T11:18:45.642Z,98999.84
2023-03-03T11:21:49.312Z,99049.34
2023-03-03T11:24:59.038Z,99045.88
2023-03-03T11:28:05.983Z,99044.78
2023-03-03T11:31:03.871Z,99036.44
2023-03-03T11:34:03.695Z,99038.44
2023-03-03T11:36:55.501Z,99025.16
2023-03-03T11:39:43.164Z,99036.91
2023-03-03T11:42:39.374Z,98976.63
2023-03-03T11:45:34.313Z,98978.50
2023-03-03T11:48:30.458Z,99038.44
2023-03-03T11:51:23.670Z,99017.41
2023-03-03T11:54:25.575Z,99037.41
2023-03-03T11:57:29.863Z,99034.13
2023-03-03T12:00:58.314Z,98976.31
2023-03-03T12:03:57.350Z,99030.84
2023-03-03T12:07:12.952Z,99029.47
2023-03-03T12:10:21.803Z,99029.47
2023-03-03T12:13:50.746Z,99027.84
2023-03-03T12:16:56.663Z,99027.31
2023-03-03T12:19:50.979Z,99022.41
2023-03-03T12:23:20.659Z,99017.72
2023-03-03T12:26:25.710Z,99021.44
2023-03-03T12:29:25.656Z,98958.66
2023-03-03T12:32:23.187Z,99003.31
2023-03-03T12:35:25.167Z,99006.13
2023-03-03T12:38:32.089Z,99001.50
2023-03-03T12:41:30.364Z,98996.91
2023-03-03T12:44:30.745Z,98999.16
2023-03-03T12:47:24.688Z,98952.03
2023-03-03T12:50:10.044Z,98998.41
2023-03-03T12:53:17.791Z,98999.09
2023-03-03T12:56:08.632Z,98991.13
2023-03-03T12:59:18.265Z,98986.38
2023-03-03T13:02:31.966Z,98987.91
2023-03-03T13:05:31.508Z,98991.78
2023-03-03T13:08:41.192Z,98986.06
2023-03-03T13:11:55.799Z,98986.13
2023-03-03T13:15:19.318Z,98973.34
2023-03-03T13:18:16.659Z,98981.03
2023-03-03T13:21:20.506Z,98978.91
2023-03-03T13:24:15.480Z,98979.75
2023-03-03T13:27:09.970Z,98980.94
2023-03-03T13:30:16.647Z,98975.25
2023-03-03T13:33:26.252Z,98944.84
2023-03-03T13:36:14.861Z,98981.41
2023-03-03T13:39:18.014Z,98981.41
2023-03-03T13:42:10.454Z,98980.06
2023-03-03T13:44:56.597Z,98930.94
2023-03-03T13:48:14.191Z,98981.66
2023-03-03T13:51:06.467Z,98964.78
2023-03-03T13:54:09.570Z,98963.84
2023-03-03T13:57:13.142Z,98966.88
2023-03-03T14:00:26.108Z,98962.19
2023-03-03T14:03:35.521Z,98963.50
2023-03-03T14:06:26.792Z,98966.66
2023-03-03T14:09:55.596Z,98963.63
2023-03-03T14:12:44.644Z,98960.44
2023-03-03T14:15:58.346Z,98964.81
2023-03-03T14:18:56.966Z,98956.41
2023-03-03T14:22:14.186Z,98956.72
2023-03-03T14:25:08.221Z,98934.06
2023-03-03T14:28:04.575Z,98947.44
2023-03-03T14:30:55.160Z,98945.56
2023-03-03T14:33:45.674Z,98945.56
2023-03-03T14:36:35.940Z,98948.28
2023-03-03T14:39:38.949Z,98942.22
2023-03-03T14:42:35.732Z,98919.91
2023-03-03T14:45:41.166Z,98934.19
2023-03-03T14:48:27.525Z,98930.06
2023-03-03T14:51:25.852Z,98939.94
2023-03-03T14:54:18.910Z,98930.69
2023-03-03T14:57:12.219Z,98780.22
2023-03-03T15:00:13.932Z,98914.41
2023-03-03T15:03:04.407Z,98918.69
2023-03-03T15:05:56.912Z,98910.56
2023-03-03T15:08:42.801Z,98905.88
2023-03-03T15:11:33.385Z,98888.78
2023-03-03T15:14:21.059Z,98902.25
2023-03-03T15:17:23.990Z,98851.38
2023-03-03T15:20:35.802Z,98901.97
2023-03-03T15:23:43.524Z,98906.59
2023-03-03T15:26:47.994Z,98910.19
2023-03-03T15:29:38.225Z,98890.84
2023-03-03T15:32:39.571Z,98891.47
2023-03-03T15:35:39.806Z,98893.13
2023-03-03T15:38:48.439Z,98891.81
2023-03-03T15:42:04.748Z,98875.31
2023-03-03T15:45:22.962Z,98886.19
2023-03-03T15:48:23.634Z,98885.50
2023-03-03T15:51:24.099Z,98885.22
2023-03-03T15:54:49.210Z,98891.06
2023-03-03T15:58:07.313Z,98886.00
2023-03-03T16:01:11.612Z,98883.50
2023-03-03T16:03:56.912Z,98897.22
2023-03-03T16:07:04.055Z,98890.03
2023-03-03T16:10:14.463Z,98888.75
2023-03-03T16:13:28.087Z,98891.19
2023-03-03T16:16:38.941Z,98892.03
2023-03-03T16:19:42.522Z,98897.41
2023-03-03T16:22:36.775Z,98894.81
2023-03-03T16:25:31.290Z,98896.19
2023-03-03T16:28:25.617Z,98901.75
2023-03-03T16:31:23.043Z,98905.94
2023-03-03T16:34:30.583Z,98909.41
2023-03-03T16:37:25.824Z,98915.94
2023-03-03T16:40:20.251Z,98916.16
2023-03-03T16:43:27.374Z,98918.97
2023-03-03T16:46:38.597Z,98915.84
2023-03-03T16:49:39.256Z,98928.06
2023-03-03T16:52:32.385Z,98919.31
2023-03-03T16:55:21.778Z,98911.84
2023-03-03T16:59:01.570Z,98926.47
2023-03-03T17:01:46.801Z,98928.78
2023-03-03T17:04:43.642Z,98928.25
2023-03-03T17:07:49.109Z,98930.53
2023-03-03T17:10:58.284Z,98898.69
2023-03-03T17:14:07.015Z,98915.09
2023-03-03T17:16:55.245Z,98940.72
2023-03-03T17:19:58.200Z,98936.88
2023-03-03T17:23:10.950Z,98935.97
2023-03-03T17:25:59.030Z,98939.41
2023-03-03T17:29:08.696Z,98933.75
2023-03-03T17:32:22.192Z,98926.16
2023-03-03T17:35:16.795Z,98927.88
2023-03-03T17:38:20.629Z,98934.88
2023-03-03T17:41:31.123Z,98924.75
2023-03-03T17:44:22.459Z,98936.38
2023-03-03T17:47:13.228Z,98932.13
2023-03-03T17:50:19.862Z,98941.63
2023-03-03T17:53:11.168Z,98946.69
2023-03-03T17:56:05.582Z,98951.53
2023-03-03T17:59:02.287Z,98915.56
2023-03-03T18:02:20.386Z,98952.50
2023-03-03T18:05:28.858Z,98960.56
2023-03-03T18:08:29.648Z,98948.03
2023-03-03T18:11:40.682Z,98948.97
2023-03-03T18:14:26.218Z,98958.94
2023-03-03T18:17:36.346Z,98959.28
2023-03-03T18:21:05.113Z,98959.16
2023-03-03T18:23:50.610Z,98959.75
2023-03-03T18:26:41.471Z,98960.09
2023-03-03T18:29:27.587Z,98967.06
2023-03-03T18:32:23.613Z,98936.22
2023-03-03T18:35:35.598Z,98957.75
2023-03-03T18:38:32.625Z,98959.75
2023-03-03T18:41:27.193Z,98963.66
2023-03-03T18:44:29.292Z,98964.56
2023-03-03T18:47:14.721Z,98961.97
2023-03-03T18:50:31.385Z,98960.59
2023-03-03T18:53:24.916Z,98950.41
2023-03-03T18:56:11.306Z,98967.22
2023-03-03T18:58:56.815Z,98965.31
2023-03-03T19:01:43.966Z,98968.94
2023-03-03T19:04:36.336Z,98969.44
2023-03-03T19:07:21.822Z,98962.94
2023-03-03T19:10:22.334Z,98966.03
2023-03-03T19:13:32.569Z,98973.47
2023-03-03T19:16:23.881Z,98970.50
2023-03-03T19:19:21.706Z,98937.63
2023-03-03T19:22:26.747Z,98968.00
2023-03-03T19:25:12.145Z,98967.63
2023-03-03T19:28:29.186Z,98971.88
2023-03-03T19:31:32.680Z,98972.22
2023-03-03T19:34:47.904Z,98973.06
2023-03-03T19:38:00.925Z,98973.34
2023-03-03T19:40:55.689Z,98975.09
2023-03-03T19:43:54.516Z,98978.53
2023-03-03T19:47:01.529Z,98938.72
2023-03-03T19:49:49.862Z,98981.66
2023-03-03T19:52:41.409Z,98984.47
2023-03-03T19:55:39.099Z,98978.88
2023-03-03T19:59:00.103Z,98984.63
2023-03-03T20:01:50.502Z,98972.94
2023-03-03T20:04:44.871Z,98989.63
2023-03-03T20:07:59.639Z,98987.53
2023-03-03T20:11:06.336Z,98990.59
2023-03-03T20:14:05.793Z,98979.88
2023-03-03T20:16:55.317Z,98993.06
2023-03-03T20:19:58.335Z,98987.94
2023-03-03T20:23:02.394Z,98983.22
2023-03-03T20:25:58.085Z,98939.91
2023-03-03T20:28:50.651Z,98982.31
2023-03-03T20:31:54.758Z,98989.69
2023-03-03T20:34:40.670Z,98991.81
2023-03-03T20:37:42.418Z,98985.28
2023-03-03T20:40:42.189Z,98999.06
2023-03-03T20:43:48.583Z,98986.78
2023-03-03T20:47:19.050Z,98984.91
2023-03-03T20:50:21.695Z,98913.03
2023-03-03T20:53:19.260Z,98969.09
2023-03-03T20:56:16.770Z,98979.97
2023-03-03T20:59:02.309Z,98980.56
2023-03-03T21:02:26.101Z,98981.41
2023-03-03T21:05:16.347Z,98982.81
2023-03-03T21:08:05.834Z,98985.66
2023-03-03T21:10:56.985Z,98983.28
2023-03-03T21:13:44.207Z,98981.88
2023-03-03T21:16:32.509Z,98979.03
2023-03-03T21:19:26.046Z,98980.56
2023-03-03T21:22:11.163Z,98982.06
2023-03-03T21:24:57.901Z,98991.56
2023-03-03T21:27:43.416Z,98983.41
2023-03-03T21:30:28.848Z,98933.31
2023-03-03T21:33:44.310Z,98979.97
2023-03-03T21:36:32.858Z,98979.28
2023-03-03T21:39:32.720Z,98983.06
2023-03-03T21:42:39.284Z,98984.22
2023-03-03T21:45:25.253Z,98975.47
2023-03-03T21:48:10.868Z,98942.72
2023-03-03T21:50:56.107Z,98972.28
2023-03-03T21:53:43.068Z,98968.59
2023-03-03T21:56:28.382Z,98975.25
2023-03-03T21:59:14.305Z,98966.38
2023-03-03T22:01:59.988Z,98961.75
2023-03-03T22:04:45.426Z,98966.97
2023-03-03T22:07:31.016Z,98954.66
2023-03-03T22:10:16.482Z,98952.50
2023-03-03T22:13:02.043Z,98953.13
2023-03-03T22:15:48.350Z,98954.25
2023-03-03T22:18:33.818Z,98952.50
2023-03-03T22:21:19.270Z,98949.69
2023-03-03T22:24:05.477Z,98951.00
2023-03-03T22:26:50.855Z,98949.13
2023-03-03T22:29:36.039Z,98946.38
2023-03-03T22:32:21.508Z,98952.06
2023-03-03T22:35:07.992Z,98947.09
2023-03-03T22:37:53.256Z,98938.69
2023-03-03T22:40:38.770Z,98948.28
2023-03-03T22:43:24.309Z,98935.38
2023-03-03T22:46:09.799Z,98935.50
2023-03-03T22:48:55.504Z,98930.78
2023-03-03T22:51:40.593Z,98932.06
2023-03-03T22:54:26.266Z,98926.94
2023-03-03T22:57:11.398Z,98863.44
2023-03-03T22:59:56.955Z,98926.63
2023-03-03T23:02:42.331Z,98921.31
2023-03-03T23:05:27.665Z,98930.66
2023-03-03T23:08:15.340Z,98849.88
2023-03-03T23:11:00.901Z,98925.44
2023-03-03T23:13:46.312Z,98923.69
2023-03-03T23:16:31.705Z,98857.00
2023-03-03T23:19:17.238Z,98905.69
2023-03-03T23:22:02.770Z,98882.28
2023-03-03T23:24:47.958Z,98916.72
2023-03-03T23:27:33.824Z,98912.31
2023-03-03T23:30:20.798Z,98889.63
2023-03-03T23:33:06.345Z,98910.66
2023-03-03T23:35:52.161Z,98904.50
2023-03-03T23:38:37.329Z,98915.88
2023-03-03T23:41:22.832Z,98840.44
2023-03-03T23:44:08.355Z,98903.94
2023-03-03T23:46:53.737Z,98896.09
2023-03-03T23:49:39.167Z,98908.50
2023-03-03T23:52:24.500Z,98908.50
2023-03-03T23:55:09.944Z,98904.28
2023-03-03T23:57:55.500Z,98914.19
